createdAt,value
2018-11-13T04:28:49.172Z,12.67
2018-11-13T04:31:17.420Z,12.73
2018-11-13T04:33:45.610Z,12.43
2018-11-13T04:36:13.786Z,12.93
2018-11-13T04:38:41.960Z,11.90
2018-11-13T04:41:10.090Z,12.63
2018-11-13T04:43:38.237Z,12.10
2018-11-13T04:46:06.352Z,12.33
2018-11-13T04:48:34.510Z,13.50
2018-11-13T04:51:02.666Z,12.57
2018-11-13T04:53:30.850Z,13.50
2018-11-13T04:55:59.071Z,13.70
2018-11-13T04:58:27.252Z,13.47
2018-11-13T05:00:55.422Z,13.43
2018-11-13T05:03:23.568Z,14.20
2018-11-13T05:05:51.710Z,13.60
2018-11-13T05:08:19.906Z,13.90
2018-11-13T05:10:48.080Z,13.57
2018-11-13T05:13:16.258Z,13.50
2018-11-13T05:15:44.398Z,13.50
2018-11-13T05:18:12.731Z,14.47
2018-11-13T05:20:40.956Z,15.50
2018-11-13T05:23:09.164Z,13.70
2018-11-13T05:25:37.289Z,13.43
2018-11-13T05:28:06.212Z,16.53
2018-11-13T05:30:34.407Z,14.10
2018-11-13T05:33:02.571Z,14.83
2018-11-13T05:35:30.775Z,14.93
2018-11-13T05:37:58.902Z,15.93
2018-11-13T05:40:27.083Z,16.00
2018-11-13T05:42:55.239Z,16.03
2018-11-13T05:45:24.899Z,15.80
2018-11-13T05:47:53.070Z,15.03
2018-11-13T05:50:21.295Z,15.13
2018-11-13T05:52:50.941Z,16.10
2018-11-13T05:55:19.093Z,14.40
2018-11-13T05:57:47.543Z,17.17
2018-11-13T06:00:20.583Z,16.50
2018-11-13T06:02:48.802Z,15.40
2018-11-13T06:05:16.986Z,16.80
2018-11-13T06:07:45.174Z,16.03
2018-11-13T06:10:13.902Z,15.97
2018-11-13T06:12:42.309Z,15.83
2018-11-13T06:15:10.774Z,16.30
2018-11-13T06:17:38.954Z,15.83
2018-11-13T06:20:08.983Z,17.50
2018-11-13T06:22:37.227Z,17.60
2018-11-13T06:25:06.661Z,16.33
2018-11-13T06:27:34.834Z,17.70
2018-11-13T06:30:03.019Z,18.80
2018-11-13T06:32:31.205Z,18.07
2018-11-13T06:34:59.643Z,18.87
2018-11-13T06:37:27.760Z,17.60
2018-11-13T06:39:55.974Z,17.43
2018-11-13T06:42:24.195Z,18.47
2018-11-13T06:44:52.357Z,20.23
2018-11-13T06:47:20.505Z,20.23
2018-11-13T06:49:48.781Z,19.43
2018-11-13T06:52:16.981Z,21.40
2018-11-13T06:55:33.821Z,21.27
2018-11-13T06:58:02.267Z,21.90
2018-11-13T07:00:30.472Z,21.87
2018-11-13T07:02:58.685Z,22.37
2018-11-13T07:05:26.838Z,21.10
2018-11-13T07:07:54.979Z,23.27
2018-11-13T07:10:24.273Z,20.97
2018-11-13T07:12:53.171Z,20.40
2018-11-13T07:15:22.588Z,20.63
2018-11-13T07:17:52.023Z,21.90
2018-11-13T07:20:21.477Z,21.27
2018-11-13T07:22:49.688Z,22.90
2018-11-13T07:25:17.954Z,20.80
2018-11-13T07:27:46.577Z,22.63
2018-11-13T07:30:15.935Z,22.40
2018-11-13T07:32:44.098Z,23.33
2018-11-13T07:35:13.774Z,22.27
2018-11-13T07:37:44.318Z,22.23
2018-11-13T07:40:12.509Z,23.10
2018-11-13T07:42:40.697Z,24.90
2018-11-13T07:45:10.979Z,23.37
2018-11-13T07:47:39.909Z,23.77
2018-11-13T07:50:09.277Z,23.97
2018-11-13T07:52:39.041Z,23.07
2018-11-13T07:55:08.009Z,21.23
2018-11-13T07:57:36.155Z,22.33
2018-11-13T08:00:06.174Z,22.50
2018-11-13T08:02:34.343Z,24.07
2018-11-13T08:05:02.527Z,24.60
2018-11-13T08:07:30.664Z,21.93
2018-11-13T08:09:58.826Z,22.60
2018-11-13T08:12:27.153Z,23.00
2018-11-13T08:14:55.339Z,24.70
2018-11-13T08:17:23.471Z,24.57
2018-11-13T08:19:51.740Z,25.47
2018-11-13T08:22:20.738Z,23.37
2018-11-13T08:24:48.789Z,22.57
2018-11-13T08:27:16.985Z,23.90
2018-11-13T08:29:45.238Z,23.20
2018-11-13T08:32:13.434Z,24.53
2018-11-13T08:34:41.902Z,24.60
2018-11-13T08:37:10.131Z,22.53
2018-11-13T08:39:45.236Z,24.80
2018-11-13T08:42:13.354Z,23.87
2018-11-13T08:44:41.514Z,23.80
2018-11-13T08:47:09.741Z,25.87
2018-11-13T08:49:37.864Z,24.53
2018-11-13T08:52:06.310Z,23.83
2018-11-13T08:54:34.462Z,25.80
2018-11-13T08:57:02.633Z,24.23
2018-11-13T08:59:30.940Z,24.97
2018-11-13T09:01:58.996Z,25.00
2018-11-13T09:04:27.167Z,25.00
2018-11-13T09:06:55.330Z,24.50
2018-11-13T09:09:23.507Z,24.67
2018-11-13T09:11:51.753Z,24.70
2018-11-13T09:14:19.832Z,26.10
2018-11-13T09:16:48.044Z,23.60
2018-11-13T09:19:16.322Z,23.20
2018-11-13T09:21:44.446Z,25.37
2018-11-13T09:24:12.698Z,25.03
2018-11-13T09:26:40.828Z,23.63
2018-11-13T09:29:09.042Z,22.43
2018-11-13T09:31:37.292Z,24.10
2018-11-13T09:34:05.529Z,23.80
2018-11-13T09:36:33.702Z,24.40
2018-11-13T09:39:01.907Z,23.60
2018-11-13T09:41:30.084Z,23.77
2018-11-13T09:43:58.208Z,22.33
2018-11-13T09:46:26.445Z,23.40
2018-11-13T09:48:54.536Z,24.67
2018-11-13T09:51:22.684Z,24.40
2018-11-13T09:53:51.319Z,23.13
2018-11-13T09:56:19.534Z,24.60
2018-11-13T09:58:47.685Z,22.63
2018-11-13T10:01:16.165Z,21.40
2018-11-13T10:03:44.727Z,19.93
2018-11-13T10:06:12.435Z,21.83
2018-11-13T10:08:40.664Z,21.67
2018-11-13T10:11:15.565Z,18.50
2018-11-13T10:13:43.826Z,19.07
2018-11-13T10:16:12.047Z,19.17
2018-11-13T10:18:40.251Z,20.40
2018-11-13T10:21:08.357Z,20.23
2018-11-13T10:23:36.511Z,20.57
2018-11-13T10:26:04.948Z,19.80
2018-11-13T10:28:33.133Z,21.90
2018-11-13T10:31:01.271Z,20.20
2018-11-13T10:33:29.561Z,20.50
2018-11-13T10:35:57.745Z,18.77
2018-11-13T10:38:25.930Z,19.67
2018-11-13T10:40:54.180Z,18.37
2018-11-13T10:43:22.375Z,18.77
2018-11-13T10:45:50.487Z,18.90
2018-11-13T10:48:18.671Z,19.40
2018-11-13T10:50:46.843Z,19.13
2018-11-13T10:53:14.975Z,20.13
2018-11-13T10:55:43.181Z,19.57
2018-11-13T10:58:11.333Z,19.30
2018-11-13T11:00:45.175Z,20.30
2018-11-13T11:04:21.739Z,18.57
2018-11-13T11:06:49.944Z,19.57
2018-11-13T11:09:18.162Z,22.03
2018-11-13T11:11:46.368Z,21.07
2018-11-13T11:14:14.579Z,20.20
2018-11-13T11:16:42.801Z,21.10
2018-11-13T11:19:10.984Z,21.00
2018-11-13T11:21:39.275Z,21.33
2018-11-13T11:24:07.530Z,20.07
2018-11-13T11:26:35.638Z,21.70
2018-11-13T11:29:03.845Z,21.70
2018-11-13T11:31:32.203Z,22.33
2018-11-13T11:34:00.507Z,21.37
2018-11-13T11:36:28.716Z,22.00
2018-11-13T11:38:57.059Z,21.93
2018-11-13T11:41:25.237Z,20.67
2018-11-13T11:43:53.441Z,21.73
2018-11-13T11:46:21.670Z,21.57
2018-11-13T11:48:49.869Z,19.17
2018-11-13T11:51:18.060Z,21.70
2018-11-13T11:53:46.352Z,20.17
2018-11-13T11:56:14.527Z,21.37
2018-11-13T11:58:42.728Z,20.70
2018-11-13T12:01:10.904Z,20.30
2018-11-13T12:03:39.084Z,19.30
2018-11-13T12:06:07.251Z,19.33
2018-11-13T12:08:35.491Z,18.80
2018-11-13T12:11:03.727Z,19.10
2018-11-13T12:13:31.901Z,19.17
2018-11-13T12:16:00.149Z,21.00
2018-11-13T12:18:28.336Z,19.53
2018-11-13T12:20:56.627Z,19.50
2018-11-13T12:23:24.807Z,19.20
2018-11-13T12:25:53.065Z,17.97
2018-11-13T12:28:21.204Z,15.90
2018-11-13T12:30:49.380Z,17.67
2018-11-13T12:33:24.318Z,18.47
2018-11-13T12:35:52.523Z,17.47
2018-11-13T12:38:20.728Z,17.90
2018-11-13T12:40:48.950Z,17.80
2018-11-13T12:43:17.135Z,18.50
2018-11-13T12:45:45.455Z,15.63
2018-11-13T12:48:13.627Z,16.73
2018-11-13T12:51:48.928Z,15.53
2018-11-13T12:54:17.131Z,15.90
2018-11-13T12:56:45.377Z,17.73
2018-11-13T12:59:13.534Z,16.03
2018-11-13T13:01:41.806Z,15.07
2018-11-13T13:04:10.006Z,15.57
2018-11-13T13:06:38.331Z,15.43
2018-11-13T13:09:08.353Z,14.97
2018-11-13T13:11:36.683Z,14.57
2018-11-13T13:14:10.589Z,14.83
2018-11-13T13:16:38.776Z,13.73
2018-11-13T13:19:06.994Z,14.17
2018-11-13T13:21:35.289Z,14.60
2018-11-13T13:24:03.622Z,14.97
2018-11-13T13:26:31.943Z,14.07
2018-11-13T13:29:00.098Z,12.87
2018-11-13T13:31:28.329Z,14.03
2018-11-13T13:33:56.556Z,14.27
2018-11-13T13:36:24.776Z,13.40
2018-11-13T13:38:53.023Z,12.80
2018-11-13T13:41:21.373Z,13.47
2018-11-13T13:43:49.578Z,13.60
2018-11-13T13:46:17.813Z,12.23
2018-11-13T13:48:45.948Z,12.53
2018-11-13T13:51:14.392Z,12.17
2018-11-13T13:53:42.683Z,10.77
2018-11-13T13:56:10.847Z,11.13
2018-11-13T13:58:39.016Z,9.70
2018-11-13T14:01:07.302Z,10.40
2018-11-13T14:03:35.487Z,10.37
2018-11-13T14:06:03.721Z,10.70
2018-11-13T14:08:31.925Z,8.90
2018-11-13T14:11:00.108Z,9.80
2018-11-13T14:13:28.292Z,9.40
2018-11-13T14:15:56.520Z,9.17
2018-11-13T14:18:24.922Z,8.80
2018-11-13T14:20:53.163Z,9.07
2018-11-13T14:23:21.378Z,9.33
2018-11-13T14:25:49.587Z,9.50
2018-11-13T14:28:17.751Z,9.23
2018-11-13T14:30:45.904Z,8.93
2018-11-13T14:33:14.115Z,8.73
2018-11-13T14:35:42.495Z,9.03
2018-11-13T14:38:10.710Z,7.43
2018-11-13T14:40:41.242Z,8.53
2018-11-13T14:43:09.802Z,7.60
2018-11-13T14:45:37.994Z,7.93
2018-11-13T14:48:06.690Z,8.90
2018-11-13T14:50:35.672Z,8.40
2018-11-13T14:53:04.048Z,8.80
2018-11-13T14:55:34.730Z,9.50
2018-11-13T14:58:03.608Z,8.50
2018-11-13T15:00:32.995Z,8.40
2018-11-13T15:03:02.112Z,8.67
2018-11-13T15:05:30.900Z,9.47
2018-11-13T15:08:00.452Z,9.47
2018-11-13T15:10:38.185Z,10.47
2018-11-13T15:13:06.956Z,8.97
2018-11-13T15:15:35.139Z,9.00
2018-11-13T15:18:03.352Z,9.70
2018-11-13T15:20:31.558Z,10.97
2018-11-13T15:22:59.746Z,10.70
2018-11-13T15:25:27.990Z,11.27
2018-11-13T15:27:56.209Z,7.70
2018-11-13T15:30:25.999Z,7.73
2018-11-13T15:32:56.515Z,6.10
2018-11-13T15:35:24.785Z,5.20
2018-11-13T15:37:52.988Z,4.30
2018-11-13T15:40:23.580Z,4.50
2018-11-13T15:42:51.911Z,4.50
2018-11-13T15:45:20.577Z,3.30
2018-11-13T15:47:49.545Z,3.30
2018-11-13T15:50:20.310Z,2.70
2018-11-13T15:52:48.627Z,2.60
2018-11-13T15:55:17.331Z,2.00
2018-11-13T15:57:46.333Z,2.23
2018-11-13T16:00:19.105Z,2.80
2018-11-13T16:02:47.403Z,2.50
2018-11-13T16:05:23.094Z,2.50
2018-11-13T16:07:52.617Z,3.00
2018-11-13T16:10:20.804Z,2.70
2018-11-13T16:12:49.559Z,3.10
2018-11-13T16:15:19.229Z,3.70
2018-11-13T16:17:47.873Z,3.07
2018-11-13T16:20:16.138Z,3.70
2018-11-13T16:22:44.343Z,3.80
2018-11-13T16:25:12.616Z,3.40
2018-11-13T16:27:41.035Z,2.70
2018-11-13T16:30:11.473Z,2.87
2018-11-13T16:32:39.656Z,2.60
2018-11-13T16:35:09.602Z,2.73
2018-11-13T16:37:38.358Z,3.03
2018-11-13T16:40:08.319Z,3.70
2018-11-13T16:42:36.488Z,3.23
2018-11-13T16:45:05.446Z,2.83
2018-11-13T16:47:33.584Z,2.67
2018-11-13T16:50:01.760Z,3.53
2018-11-13T16:52:29.956Z,2.37
2018-11-13T16:54:58.104Z,2.57
2018-11-13T16:57:26.284Z,2.70
2018-11-13T16:59:54.677Z,2.97
2018-11-13T17:02:23.081Z,2.50
2018-11-13T17:04:51.289Z,2.10
2018-11-13T17:07:19.728Z,2.30
2018-11-13T17:09:47.739Z,2.10
2018-11-13T17:12:15.899Z,1.60
2018-11-13T17:14:44.122Z,1.73
2018-11-13T17:17:19.192Z,1.73
2018-11-13T17:19:47.380Z,1.33
2018-11-13T17:22:15.584Z,1.60
2018-11-13T17:24:43.824Z,1.37
2018-11-13T17:27:12.514Z,1.40
2018-11-13T17:29:40.686Z,1.00
2018-11-13T17:32:08.904Z,1.03
2018-11-13T17:34:37.031Z,1.00
2018-11-13T17:37:05.877Z,1.00
2018-11-13T17:39:34.096Z,1.30
2018-11-13T17:42:02.403Z,0.80
2018-11-13T17:44:30.958Z,1.30
2018-11-13T17:46:58.785Z,0.73
2018-11-13T17:49:26.964Z,0.60
2018-11-13T17:51:55.218Z,0.60
2018-11-13T17:54:23.684Z,0.90
2018-11-13T17:56:51.641Z,0.97
2018-11-13T17:59:19.922Z,0.77
2018-11-13T18:01:48.094Z,1.30
2018-11-13T18:04:16.235Z,1.27
2018-11-13T18:06:44.422Z,0.87
2018-11-13T18:09:14.707Z,1.00
2018-11-13T18:11:42.925Z,0.73
2018-11-13T18:14:11.377Z,0.90
2018-11-13T18:16:39.398Z,0.97
2018-11-13T18:19:07.650Z,1.00
2018-11-13T18:21:35.843Z,0.80
2018-11-13T18:24:04.039Z,0.90
2018-11-13T18:26:32.226Z,1.10
2018-11-13T18:29:00.620Z,0.90
2018-11-13T18:31:28.855Z,1.03
2018-11-13T18:33:57.188Z,0.97
2018-11-13T18:36:25.520Z,1.13
2018-11-13T18:38:54.142Z,1.13
2018-11-13T18:41:22.297Z,1.40
2018-11-13T18:43:50.535Z,1.40
2018-11-13T18:46:18.731Z,1.27
2018-11-13T18:48:47.019Z,1.50
2018-11-13T18:51:15.421Z,1.70
2018-11-13T18:53:43.655Z,1.67
2018-11-13T18:56:11.923Z,2.13
2018-11-13T18:58:40.242Z,2.30
2018-11-13T19:01:08.539Z,2.00
2018-11-13T19:03:37.302Z,2.10
2018-11-13T19:06:05.767Z,2.40
2018-11-13T19:08:40.769Z,2.67
2018-11-13T19:11:09.129Z,2.80
2018-11-13T19:13:37.355Z,3.30
2018-11-13T19:16:08.475Z,2.60
2018-11-13T19:18:36.673Z,3.00
2018-11-13T19:21:05.972Z,3.70
2018-11-13T19:23:34.317Z,3.30
2018-11-13T19:26:02.626Z,4.07
2018-11-13T19:28:31.006Z,3.67
2018-11-13T19:30:59.377Z,3.90
2018-11-13T19:33:27.709Z,4.30
2018-11-13T19:35:56.075Z,4.50
2018-11-13T19:38:24.366Z,4.37
2018-11-13T19:40:52.678Z,4.50
2018-11-13T19:43:21.053Z,4.60
2018-11-13T19:45:49.607Z,5.57
2018-11-13T19:48:17.995Z,5.30
2018-11-13T19:50:46.386Z,5.30
2018-11-13T19:53:14.771Z,4.97
2018-11-13T19:55:43.331Z,4.73
2018-11-13T19:58:11.662Z,5.83
2018-11-13T20:00:45.625Z,5.33
2018-11-13T20:03:14.054Z,5.77
2018-11-13T20:05:42.554Z,5.50
2018-11-13T20:08:11.243Z,5.40
2018-11-13T20:10:40.440Z,5.40
2018-11-13T20:13:10.207Z,5.50
2018-11-13T20:15:39.226Z,5.80
2018-11-13T20:18:07.840Z,6.00
2018-11-13T20:20:36.503Z,6.30
2018-11-13T20:23:06.118Z,6.03
2018-11-13T20:25:35.133Z,6.00
2018-11-13T20:28:03.824Z,6.70
2018-11-13T20:30:35.006Z,6.30
2018-11-13T20:33:03.992Z,6.60
2018-11-13T20:35:32.432Z,6.40
2018-11-13T20:38:07.678Z,6.17
2018-11-13T20:40:36.983Z,6.90
2018-11-13T20:43:06.938Z,5.90
2018-11-13T20:45:35.932Z,6.57
2018-11-13T20:48:04.214Z,6.80
2018-11-13T20:50:33.651Z,6.80
2018-11-13T20:53:03.686Z,5.80
2018-11-13T20:55:32.013Z,7.60
2018-11-13T20:58:00.613Z,6.40
2018-11-13T21:00:31.118Z,6.90
2018-11-13T21:02:59.714Z,7.00
2018-11-13T21:05:28.458Z,7.07
2018-11-13T21:07:56.929Z,7.63
2018-11-13T21:10:33.506Z,6.60
2018-11-13T21:13:02.388Z,7.53
2018-11-13T21:18:16.453Z,9.20
2018-11-13T21:20:45.526Z,9.50
2018-11-13T21:23:13.931Z,8.37
2018-11-13T21:25:42.310Z,8.40
2018-11-13T21:28:10.913Z,8.47
2018-11-13T21:30:39.234Z,8.10
2018-11-13T21:33:07.720Z,8.67
2018-11-13T21:35:36.103Z,9.50
2018-11-13T21:38:04.708Z,9.20
2018-11-13T21:40:33.058Z,10.43
2018-11-13T21:43:02.055Z,10.20
2018-11-13T21:45:30.384Z,10.10
2018-11-13T21:47:58.682Z,9.93
2018-11-13T21:50:28.236Z,10.83
2018-11-13T21:52:56.476Z,10.67
2018-11-13T21:55:26.133Z,9.93
2018-11-13T21:57:54.354Z,11.37
2018-11-13T22:00:31.293Z,9.53
2018-11-13T22:03:02.321Z,9.33
2018-11-13T22:05:31.359Z,9.70
2018-11-13T22:07:59.681Z,10.43
2018-11-13T22:10:28.033Z,9.20
2018-11-13T22:12:56.287Z,10.00
2018-11-13T22:15:25.703Z,9.53
2018-11-13T22:17:53.938Z,9.70
2018-11-13T22:20:22.829Z,9.20
2018-11-13T22:22:52.252Z,9.83
2018-11-13T22:25:22.339Z,10.40
2018-11-13T22:27:51.725Z,8.57
2018-11-13T22:30:21.443Z,8.93
2018-11-13T22:32:49.701Z,8.57
2018-11-13T22:35:18.657Z,7.83
2018-11-13T22:37:46.881Z,8.63
2018-11-13T22:40:30.919Z,8.60
2018-11-13T22:42:59.931Z,7.90
2018-11-13T22:45:29.279Z,8.63
2018-11-13T22:47:57.811Z,8.20
2018-11-13T22:50:30.751Z,7.57
2018-11-13T22:52:58.962Z,7.40
2018-11-13T22:55:27.175Z,7.70
2018-11-13T22:57:56.385Z,8.47
2018-11-13T23:00:35.474Z,9.33
2018-11-13T23:03:04.085Z,7.33
2018-11-13T23:05:32.395Z,8.23
2018-11-13T23:08:00.683Z,8.90
2018-11-13T23:10:28.891Z,8.17
2018-11-13T23:12:57.120Z,7.87
2018-11-13T23:15:25.281Z,7.23
2018-11-13T23:17:53.505Z,7.60
2018-11-13T23:20:21.882Z,7.47
2018-11-13T23:22:50.200Z,7.10
2018-11-13T23:25:19.435Z,7.47
2018-11-13T23:27:48.596Z,7.83
2018-11-13T23:30:18.728Z,6.83
2018-11-13T23:32:47.143Z,6.50
2018-11-13T23:35:15.645Z,6.83
2018-11-13T23:37:44.940Z,7.10
2018-11-13T23:40:15.300Z,7.23
2018-11-13T23:42:43.987Z,7.80
2018-11-13T23:45:13.000Z,6.50
2018-11-13T23:47:41.464Z,7.67
2018-11-13T23:50:10.051Z,8.30
2018-11-13T23:52:38.407Z,7.87
2018-11-13T23:55:07.512Z,8.00
2018-11-13T23:57:35.660Z,7.70
